Zefyros — SZHX — position and weather

sailwx.info

Track history (hours):
 
Tides and Currents Weather Stations Pressure Air Temp Water Temp Dewpoint Dewpoint Depression Visibility Wind Speed Wind Dir Waves Ship Positions

Zefyros

Last reported at 2018-Feb-21 03:50 UTC. Time now 2018-Feb-21 19:36 UTC.
Position N 37°29' E 025°56'.

Length 77 m; draft 4.5 m.

Type: Ship. MMSI: 240485000.

Date/timePositionNaut miles runAvg speedWind from/ knotsBaromVisibWave heightAir tempDewpointWater temp
2018-Feb-21 03:50N 37°29' E 025°56'310.2
2018-Feb-21 03:30N 37°29' E 025°51'510.2
2018-Feb-21 03:00N 37°30' E 025°45'611.2
2018-Feb-21 02:30N 37°30' E 025°38'611.5
2018-Feb-21 02:00N 37°31' E 025°31'611.5
2018-Feb-21 01:30N 37°31' E 025°23'5 9.8
2018-Feb-21 01:00N 37°29' E 025°18'2 3.7
2018-Feb-21 00:30N 37°28' E 025°19'0 0.0
2018-Feb-21 00:00N 37°28' E 025°19'0 0.0
2018-Feb-20 23:30N 37°28' E 025°19'0 0.0
2018-Feb-20 23:00N 37°28' E 025°19'0 0.0
2018-Feb-20 22:30N 37°28' E 025°19'0 0.0
2018-Feb-20 22:00N 37°28' E 025°19'0 0.0
2018-Feb-20 21:30N 37°28' E 025°19'0 0.0
2018-Feb-20 21:00N 37°28' E 025°19'0 0.0
2018-Feb-20 20:30N 37°28' E 025°19'0 0.0
2018-Feb-20 20:00N 37°28' E 025°19'0 0.0
2018-Feb-20 19:30N 37°28' E 025°19'0 0.0
2018-Feb-20 19:00N 37°28' E 025°19'0 0.0
2018-Feb-20 18:30N 37°28' E 025°19'0 0.0
2018-Feb-20 18:00N 37°28' E 025°19'0 0.0
2018-Feb-20 17:30N 37°28' E 025°19'0 0.0
2018-Feb-20 17:00N 37°28' E 025°19'0 0.0
2018-Feb-20 16:30N 37°28' E 025°19'0 0.0
2018-Feb-20 16:00N 37°28' E 025°19'0 1.0
2018-Feb-20 15:30N 37°28' E 025°19'511.0
2018-Feb-20 15:00N 37°30' E 025°13'4 6.9
2018-Feb-20 14:30N 37°32' E 025°09'0 0.0
2018-Feb-20 13:59N 37°32' E 025°09'0 0.0
2018-Feb-20 13:30N 37°32' E 025°09'0 0.0
2018-Feb-20 13:00N 37°32' E 025°09'0 0.0
2018-Feb-20 12:30N 37°32' E 025°09'2 4.2
2018-Feb-20 12:00N 37°32' E 025°07'611.0
2018-Feb-20 11:30N 37°36' E 025°01'510.7
2018-Feb-20 11:00N 37°39' E 024°56'610.9
2018-Feb-20 10:29N 37°44' E 024°51'111 2.6
2018-Feb-18 15:58N 39°26' E 023°56'510.8
2018-Feb-18 15:29N 39°29' E 024°02'511.1
2018-Feb-18 15:00N 39°32' E 024°08'611.2
2018-Feb-18 14:30N 39°34' E 024°14'2811.5
2018-Feb-18 12:06N 39°46' E 024°47'511.0
2018-Feb-18 11:37N 39°49' E 024°53'510.9
2018-Feb-18 11:08N 39°51' E 024°59'410.5
2018-Feb-18 10:48N 39°52' E 025°03'0 0.0
2018-Feb-18 04:42N 39°52' E 025°03'2 7.8
2018-Feb-18 04:29N 39°51' E 025°02'  
2018-Feb-13 20:00N 37°38' E 025°53'610.5
2018-Feb-13 19:27N 37°37' E 025°46'511.2
2018-Feb-13 19:00N 37°35' E 025°40'611.0
2018-Feb-13 18:30N 37°34' E 025°33'510.9
2018-Feb-13 18:00N 37°32' E 025°26'611.1
2018-Feb-13 17:30N 37°31' E 025°20'3 5.7
2018-Feb-13 17:00N 37°28' E 025°19'0 0.0
2018-Feb-13 16:29N 37°28' E 025°19'0 0.0
2018-Feb-13 16:00N 37°28' E 025°19'0 0.0
2018-Feb-13 15:30N 37°28' E 025°19'0 1.0
2018-Feb-13 15:00N 37°28' E 025°19'511.0
2018-Feb-13 14:30N 37°30' E 025°13'3 6.8
2018-Feb-13 14:00N 37°32' E 025°09'0 0.0
2018-Feb-13 13:30N 37°32' E 025°09'0 0.0
2018-Feb-13 13:00N 37°32' E 025°09'0 0.0
2018-Feb-13 12:30N 37°32' E 025°09'0 0.0
2018-Feb-13 12:00N 37°32' E 025°09'3 6.9
2018-Feb-13 11:30N 37°33' E 025°05'510.7
2018-Feb-13 11:00N 37°37' E 024°60'810.9
2018-Feb-13 10:17N 37°42' E 024°53'114 3.6
2018-Feb-12 02:09N 39°30' E 024°03'110.1
2018-Feb-12 02:00N 39°31' E 024°05'510.7
2018-Feb-12 01:30N 39°33' E 024°11'2911.2
2018-Feb-11 22:57N 39°46' E 024°44'711.5
2018-Feb-11 22:22N 39°49' E 024°52'611.5
2018-Feb-11 21:53N 39°51' E 024°59'4 0.8
2018-Feb-11 17:16N 39°52' E 025°03'2 8.5
2018-Feb-11 17:00N 39°50' E 025°02'  
Track history (hours):
 
Tides and Currents Weather Stations Pressure Air Temp Water Temp Dewpoint Dewpoint Depression Visibility Wind Speed Wind Dir Waves Ship Positions

Zefyros

Last reported at 2018-Feb-21 03:50 UTC. Time now 2018-Feb-21 19:36 UTC.
Position N 37°29' E 025°56'.

Length 77 m; draft 4.5 m.

Type: Ship. MMSI: 240485000.

Date/timePositionNaut miles runAvg speedWind from/ knotsBaromVisibWave heightAir tempDewpointWater temp
2018-Feb-21 03:50N 37°29' E 025°56'310.2
2018-Feb-21 03:30N 37°29' E 025°51'510.2
2018-Feb-21 03:00N 37°30' E 025°45'611.2
2018-Feb-21 02:30N 37°30' E 025°38'611.5
2018-Feb-21 02:00N 37°31' E 025°31'611.5
2018-Feb-21 01:30N 37°31' E 025°23'5 9.8
2018-Feb-21 01:00N 37°29' E 025°18'2 3.7
2018-Feb-21 00:30N 37°28' E 025°19'0 0.0
2018-Feb-21 00:00N 37°28' E 025°19'0 0.0
2018-Feb-20 23:30N 37°28' E 025°19'0 0.0
2018-Feb-20 23:00N 37°28' E 025°19'0 0.0
2018-Feb-20 22:30N 37°28' E 025°19'0 0.0
2018-Feb-20 22:00N 37°28' E 025°19'0 0.0
2018-Feb-20 21:30N 37°28' E 025°19'0 0.0
2018-Feb-20 21:00N 37°28' E 025°19'0 0.0
2018-Feb-20 20:30N 37°28' E 025°19'0 0.0
2018-Feb-20 20:00N 37°28' E 025°19'0 0.0
2018-Feb-20 19:30N 37°28' E 025°19'0 0.0
2018-Feb-20 19:00N 37°28' E 025°19'0 0.0
2018-Feb-20 18:30N 37°28' E 025°19'0 0.0
2018-Feb-20 18:00N 37°28' E 025°19'0 0.0
2018-Feb-20 17:30N 37°28' E 025°19'0 0.0
2018-Feb-20 17:00N 37°28' E 025°19'0 0.0
2018-Feb-20 16:30N 37°28' E 025°19'0 0.0
2018-Feb-20 16:00N 37°28' E 025°19'0 1.0
2018-Feb-20 15:30N 37°28' E 025°19'511.0
2018-Feb-20 15:00N 37°30' E 025°13'4 6.9
2018-Feb-20 14:30N 37°32' E 025°09'0 0.0
2018-Feb-20 13:59N 37°32' E 025°09'0 0.0
2018-Feb-20 13:30N 37°32' E 025°09'0 0.0
2018-Feb-20 13:00N 37°32' E 025°09'0 0.0
2018-Feb-20 12:30N 37°32' E 025°09'2 4.2
2018-Feb-20 12:00N 37°32' E 025°07'611.0
2018-Feb-20 11:30N 37°36' E 025°01'510.7
2018-Feb-20 11:00N 37°39' E 024°56'610.9
2018-Feb-20 10:29N 37°44' E 024°51'111 2.6
2018-Feb-18 15:58N 39°26' E 023°56'510.8
2018-Feb-18 15:29N 39°29' E 024°02'511.1
2018-Feb-18 15:00N 39°32' E 024°08'611.2
2018-Feb-18 14:30N 39°34' E 024°14'2811.5
2018-Feb-18 12:06N 39°46' E 024°47'511.0
2018-Feb-18 11:37N 39°49' E 024°53'510.9
2018-Feb-18 11:08N 39°51' E 024°59'410.5
2018-Feb-18 10:48N 39°52' E 025°03'0 0.0
2018-Feb-18 04:42N 39°52' E 025°03'2 7.8
2018-Feb-18 04:29N 39°51' E 025°02'  
2018-Feb-13 20:00N 37°38' E 025°53'610.5
2018-Feb-13 19:27N 37°37' E 025°46'511.2
2018-Feb-13 19:00N 37°35' E 025°40'611.0
2018-Feb-13 18:30N 37°34' E 025°33'510.9
2018-Feb-13 18:00N 37°32' E 025°26'611.1
2018-Feb-13 17:30N 37°31' E 025°20'3 5.7
2018-Feb-13 17:00N 37°28' E 025°19'0 0.0
2018-Feb-13 16:29N 37°28' E 025°19'0 0.0
2018-Feb-13 16:00N 37°28' E 025°19'0 0.0
2018-Feb-13 15:30N 37°28' E 025°19'0 1.0
2018-Feb-13 15:00N 37°28' E 025°19'511.0
2018-Feb-13 14:30N 37°30' E 025°13'3 6.8
2018-Feb-13 14:00N 37°32' E 025°09'0 0.0
2018-Feb-13 13:30N 37°32' E 025°09'0 0.0
2018-Feb-13 13:00N 37°32' E 025°09'0 0.0
2018-Feb-13 12:30N 37°32' E 025°09'0 0.0
2018-Feb-13 12:00N 37°32' E 025°09'3 6.9
2018-Feb-13 11:30N 37°33' E 025°05'510.7
2018-Feb-13 11:00N 37°37' E 024°60'810.9
2018-Feb-13 10:17N 37°42' E 024°53'114 3.6
2018-Feb-12 02:09N 39°30' E 024°03'110.1
2018-Feb-12 02:00N 39°31' E 024°05'510.7
2018-Feb-12 01:30N 39°33' E 024°11'2911.2
2018-Feb-11 22:57N 39°46' E 024°44'711.5
2018-Feb-11 22:22N 39°49' E 024°52'611.5
2018-Feb-11 21:53N 39°51' E 024°59'4 0.8
2018-Feb-11 17:16N 39°52' E 025°03'2 8.5
2018-Feb-11 17:00N 39°50' E 025°02'  

Dump ship's entire track history